Garden City, South Dakota
Current Conditions -  °F | °C
As of 11:53 AM on Friday 21 Nov 2014 (Local Time) from KATY Reporting Station
Clear Clear  
Wind Chill: 14°   Ceiling: Unl
Heat Index: 27°   Visibility: 10mi
Dew Point: 21°   Wind: 18mph
Humidity: 78%   Direction: 190°S
Pressure: 29.87"   Gusts: 26mph
Location:  44.96°N, 97.58°W
Report Text: KATY 211753Z AUTO 19016G23KT 10SM CLR M03/M06 A2987 RMK AO2 PK WND 20026/1655 SLP146 T10281061 11028 21094 58014
Loading
Personal Weather Stations






























Interactive Weather Map New forecast layout! Learn more

10-Day Weather Forecast

Advertisements
Track Severe Weather on mobile